Airfield :
LOGIN :

Register | Disclaimer

   EN    FR    IT 

 










Legend :    VFR   Marginal VFR   IFR   Intensive IFR   Very Intensive IFR
Visi :
Ceiling :
>= 8 km
>= 3000ft
5 to 8 km
1000 to 3000 ft
1500m to 5 km
500 to 1000 ft
800 to 1500m
200 to 500 ft
< 800m
< 200 ft
Symbols :   Thunderstorms  Fog  Heavy snow  Heavy precipitations  Wind > 20 kt
SIGMETs :     Misc.  Thunderstorms  Icing  Turbulence  Mountain Waves  Volcanic Ashes






- Airport Elevation : 2031 ft


LEGT - Madrid Getafe

CURRENT METAR :
  • 292300Z AUTO 04007KT CAVOK 25/08 Q1015

EXPIRED METARs :
  • 292230Z AUTO 04007KT CAVOK 26/08 Q1015
  • 292200Z AUTO 03007KT CAVOK 27/08 Q1015
  • 292130Z AUTO 03008KT CAVOK 28/07 Q1015
  • 292100Z AUTO 34004KT CAVOK 26/07 Q1015
  • 292030Z AUTO 31005KT CAVOK 28/06 Q1015
  • 292000Z AUTO 29006KT 9999 FEW002/// 29/05 Q1014
  • 291930Z AUTO 25004KT 230V290 CAVOK 30/08 Q1014
  • 291900Z AUTO 21004KT CAVOK 31/07 Q1014

TAF TAF LEGT
Valid from the 30 at 00:00 until the 31 at 00:00 UTC


292300Z 3000/3024 05010KT CAVOK TX34/3015Z TN18/3005Z
BECMG 3007/3009 VRB04KT
BECMG 3016/3018 36010KT
TEMPO 3020/3022 05015G25KT



MET'MAP, your aeronautical weather chart ! - Copyright ORBIFLY December 2007 - Disclaimer

ORBIFLY MET'MAP TEAM :

Programming & Development : Alexandra Zaïnal
Original concept : Baudouin d'Aumeries
Technical & hardware support : Manuel Goepfert
Assistance : Marc-Olivier Méhu




SOURCES & CREDITS :

   NOAA